createdAt,value
2023-04-10T00:02:54.903Z,11.55
2023-04-10T00:07:59.673Z,14.10
2023-04-10T00:13:03.703Z,13.38
2023-04-10T00:18:06.745Z,12.00
2023-04-10T00:23:10.847Z,13.60
2023-04-10T00:28:14.371Z,13.23
2023-04-10T00:33:17.130Z,14.05
2023-04-10T00:38:21.417Z,14.73
2023-04-10T00:43:24.404Z,16.50
2023-04-10T00:48:27.591Z,13.48
2023-04-10T00:53:32.496Z,13.77
2023-04-10T00:58:35.365Z,13.57
2023-04-10T01:03:39.446Z,12.63
2023-04-10T01:08:54.230Z,11.85
2023-04-10T01:14:06.530Z,11.57
2023-04-10T01:19:20.685Z,9.85
2023-04-10T01:24:43.624Z,11.50
2023-04-10T01:29:53.542Z,10.88
2023-04-10T01:34:58.344Z,10.60
2023-04-10T01:40:04.301Z,10.15
2023-04-10T01:45:14.722Z,11.65
2023-04-10T01:50:19.081Z,11.75
2023-04-10T01:55:23.200Z,12.48
2023-04-10T02:00:38.834Z,29.77
2023-04-10T02:05:49.859Z,18.80
2023-04-10T02:10:57.310Z,19.38
2023-04-10T02:16:06.223Z,13.82
2023-04-10T02:21:09.832Z,13.07
2023-04-10T02:26:12.626Z,14.90
2023-04-10T02:31:17.646Z,15.68
2023-04-10T02:36:20.365Z,12.38
2023-04-10T02:41:24.378Z,11.98
2023-04-10T02:46:29.739Z,11.85
2023-04-10T02:51:36.383Z,11.88
2023-04-10T02:56:40.117Z,12.20
2023-04-10T03:01:44.615Z,12.43
2023-04-10T03:06:47.378Z,13.70
2023-04-10T03:11:50.166Z,13.80
2023-04-10T03:16:54.441Z,12.90
2023-04-10T03:21:57.399Z,14.65
2023-04-10T03:27:00.288Z,12.98
2023-04-10T03:32:04.685Z,13.88
2023-04-10T03:37:09.718Z,14.98
2023-04-10T03:42:13.746Z,14.65
2023-04-10T03:47:17.916Z,13.93
2023-04-10T03:52:24.711Z,15.20
2023-04-10T03:57:28.783Z,14.98
2023-04-10T04:02:39.614Z,14.45
2023-04-10T04:07:42.688Z,16.10
2023-04-10T04:13:11.544Z,15.30
2023-04-10T04:18:41.819Z,15.60
2023-04-10T04:24:05.216Z,14.55
2023-04-10T04:29:31.000Z,14.43
2023-04-10T04:34:46.323Z,15.13
2023-04-10T04:40:10.110Z,15.65
2023-04-10T04:45:42.325Z,14.07
2023-04-10T04:51:07.614Z,15.15
2023-04-10T04:56:39.053Z,14.73
2023-04-10T05:01:44.622Z,14.25
2023-04-10T05:07:08.796Z,14.60
2023-04-10T05:12:45.911Z,15.95
2023-04-10T05:17:59.615Z,14.57
2023-04-10T05:23:30.348Z,14.50
2023-04-10T05:28:52.759Z,14.85
2023-04-10T05:34:08.205Z,14.60
2023-04-10T05:39:23.681Z,14.30
2023-04-10T05:44:45.749Z,14.65
2023-04-10T05:50:03.106Z,15.60
2023-04-10T05:55:19.678Z,15.48
2023-04-10T06:00:41.841Z,16.13
2023-04-10T06:06:13.913Z,16.60
2023-04-10T06:11:18.329Z,18.27
2023-04-10T06:16:26.807Z,16.58
2023-04-10T06:21:30.694Z,15.45
2023-04-10T06:26:34.967Z,14.50
2023-04-10T06:31:39.272Z,13.63
2023-04-10T06:36:43.885Z,15.50
2023-04-10T06:41:48.250Z,13.23
2023-04-10T06:47:06.992Z,13.18
2023-04-10T06:52:11.309Z,12.68
2023-04-10T06:57:16.056Z,16.08
2023-04-10T07:02:19.074Z,13.23
2023-04-10T07:07:21.859Z,12.88
2023-04-10T07:12:26.552Z,12.38
2023-04-10T07:17:29.598Z,12.05
2023-04-10T07:22:33.262Z,11.43
2023-04-10T07:27:39.233Z,10.00
2023-04-10T07:32:42.563Z,11.10
2023-04-10T07:37:46.579Z,10.15
2023-04-10T07:42:53.800Z,8.80
2023-04-10T07:47:58.384Z,9.93
2023-04-10T07:53:03.626Z,9.18
2023-04-10T07:58:09.756Z,10.23
2023-04-10T08:03:13.358Z,8.93
2023-04-10T08:08:16.956Z,9.75
2023-04-10T08:13:22.724Z,9.32
2023-04-10T08:18:26.571Z,9.07
2023-04-10T08:23:29.324Z,8.95
2023-04-10T08:28:34.016Z,8.43
2023-04-10T08:33:37.598Z,8.10
2023-04-10T08:38:41.777Z,8.30
2023-04-10T08:43:49.617Z,8.60
2023-04-10T08:49:00.410Z,8.90
2023-04-10T08:54:08.017Z,7.80
2023-04-10T09:04:17.157Z,6.25
2023-04-10T09:09:20.773Z,6.30
2023-04-10T09:14:25.928Z,5.70
2023-04-10T09:19:31.871Z,6.47
2023-04-10T09:24:38.778Z,5.68
2023-04-10T09:29:45.875Z,6.28
2023-04-10T09:34:59.063Z,5.10
2023-04-10T09:40:02.449Z,6.03
2023-04-10T09:45:07.725Z,4.93
2023-04-10T09:50:10.514Z,5.50
2023-04-10T09:55:18.241Z,4.25
2023-04-10T10:00:23.065Z,4.55
2023-04-10T10:05:31.096Z,4.45
2023-04-10T10:10:34.371Z,5.10
2023-04-10T10:15:46.001Z,3.92
2023-04-10T10:20:50.351Z,4.63
2023-04-10T10:25:55.922Z,4.57
2023-04-10T10:31:01.067Z,4.90
2023-04-10T10:36:04.768Z,4.55
2023-04-10T10:41:15.358Z,4.75
2023-04-10T10:46:26.731Z,5.07
2023-04-10T10:51:46.838Z,4.95
2023-04-10T10:56:50.515Z,5.70
2023-04-10T11:02:19.218Z,4.20
2023-04-10T11:07:22.392Z,4.68
2023-04-10T11:12:26.238Z,4.80
2023-04-10T11:17:51.431Z,4.93
2023-04-10T11:23:12.327Z,4.35
2023-04-10T11:28:35.461Z,3.85
2023-04-10T11:33:39.797Z,4.03
2023-04-10T11:38:42.655Z,3.58
2023-04-10T11:43:46.296Z,3.67
2023-04-10T11:48:54.118Z,3.80
2023-04-10T11:54:08.091Z,3.78
2023-04-10T11:59:13.319Z,3.75
2023-04-10T12:04:19.188Z,3.22
2023-04-10T12:09:23.124Z,4.63
2023-04-10T12:14:31.172Z,3.92
2023-04-10T12:19:37.592Z,3.45
2023-04-10T12:24:44.884Z,3.20
2023-04-10T12:29:49.958Z,3.97
2023-04-10T12:34:57.183Z,3.53
2023-04-10T12:40:08.433Z,3.72
2023-04-10T12:45:13.998Z,3.53
2023-04-10T12:50:21.429Z,4.07
2023-04-10T12:55:24.241Z,3.55
2023-04-10T13:00:27.314Z,2.83
2023-04-10T13:05:31.382Z,3.15
2023-04-10T13:10:34.141Z,3.03
2023-04-10T13:15:36.833Z,2.67
2023-04-10T13:20:42.015Z,3.53
2023-04-10T13:25:44.988Z,3.50
2023-04-10T13:30:50.264Z,4.28
2023-04-10T13:35:55.206Z,4.45
2023-04-10T13:40:58.876Z,4.65
2023-04-10T13:46:01.728Z,3.42
2023-04-10T13:51:07.284Z,3.28
2023-04-10T13:56:10.854Z,3.15
2023-04-10T14:01:13.689Z,3.58
2023-04-10T14:06:17.976Z,3.25
2023-04-10T14:11:21.593Z,3.35
2023-04-10T14:16:24.339Z,2.72
2023-04-10T14:21:31.050Z,2.70
2023-04-10T14:26:34.290Z,3.20
2023-04-10T14:31:44.173Z,3.20
2023-04-10T14:36:59.608Z,3.08
2023-04-10T14:42:03.267Z,3.08
2023-04-10T14:47:06.534Z,2.63
2023-04-10T14:52:13.444Z,2.45
2023-04-10T14:57:17.337Z,2.78
2023-04-10T15:02:20.242Z,3.33
2023-04-10T15:07:25.527Z,2.90
2023-04-10T15:12:28.372Z,2.78
2023-04-10T15:17:31.437Z,2.70
2023-04-10T15:22:35.789Z,3.03
2023-04-10T15:27:39.070Z,3.22
2023-04-10T15:32:41.920Z,2.72
2023-04-10T15:37:46.087Z,2.75
2023-04-10T15:42:49.410Z,2.60
2023-04-10T15:47:53.993Z,3.20
2023-04-10T15:52:58.067Z,2.80
2023-04-10T15:58:02.532Z,3.50
2023-04-10T16:03:05.899Z,3.58
2023-04-10T16:08:13.401Z,3.78
2023-04-10T16:13:16.153Z,2.75
2023-04-10T16:18:20.641Z,2.45
2023-04-10T16:23:24.698Z,3.85
2023-04-10T16:28:28.199Z,2.55
2023-04-10T16:33:32.371Z,2.22
2023-04-10T16:38:36.561Z,2.10
2023-04-10T16:43:39.531Z,1.70
2023-04-10T16:48:43.667Z,2.03
2023-04-10T16:53:47.752Z,1.98
2023-04-10T16:58:51.484Z,2.80
2023-04-10T17:03:55.578Z,2.05
2023-04-10T17:09:01.894Z,2.05
2023-04-10T17:14:05.883Z,1.95
2023-04-10T17:19:09.065Z,2.05
2023-04-10T17:24:13.568Z,1.90
2023-04-10T17:29:19.600Z,2.22
2023-04-10T17:34:22.369Z,2.50
2023-04-10T17:39:27.155Z,2.08
2023-04-10T17:44:30.007Z,2.47
2023-04-10T17:49:32.875Z,2.35
2023-04-10T17:54:37.571Z,2.00
2023-04-10T17:59:40.668Z,2.17
2023-04-10T18:04:44.121Z,2.22
2023-04-10T18:09:48.351Z,2.50
2023-04-10T18:14:51.446Z,2.42
2023-04-10T18:19:56.101Z,2.30
2023-04-10T18:25:00.939Z,3.88
2023-04-10T18:30:04.056Z,2.42
2023-04-10T18:35:08.121Z,3.28
2023-04-10T18:40:16.758Z,2.00
2023-04-10T18:45:20.624Z,2.45
2023-04-10T18:50:23.556Z,2.88
2023-04-10T18:55:27.658Z,2.53
2023-04-10T19:00:31.978Z,2.88
2023-04-10T19:05:34.691Z,2.28
2023-04-10T19:10:39.602Z,2.28
2023-04-10T19:15:43.651Z,2.42
2023-04-10T19:20:50.519Z,2.35
2023-04-10T19:25:58.531Z,3.10
2023-04-10T19:31:01.589Z,3.42
2023-04-10T19:36:06.836Z,3.45
2023-04-10T19:41:16.117Z,2.37
2023-04-10T19:46:19.371Z,2.58
2023-04-10T19:51:22.235Z,2.55
2023-04-10T19:56:26.935Z,3.40
2023-04-10T20:01:30.656Z,2.88
2023-04-10T20:06:34.282Z,2.47
2023-04-10T20:11:38.799Z,3.05
2023-04-10T20:16:42.312Z,2.88
2023-04-10T20:21:45.197Z,2.78
2023-04-10T20:26:49.270Z,2.72
2023-04-10T20:31:53.843Z,3.65
2023-04-10T20:36:56.630Z,3.63
2023-04-10T20:42:01.294Z,3.20
2023-04-10T20:47:06.187Z,5.28
2023-04-10T20:52:09.395Z,3.80
2023-04-10T20:57:13.641Z,3.10
2023-04-10T21:02:18.112Z,2.80
2023-04-10T21:07:21.338Z,3.33
2023-04-10T21:12:25.747Z,3.38
2023-04-10T21:17:31.489Z,2.83
2023-04-10T21:22:34.641Z,3.38
2023-04-10T21:27:38.903Z,3.97
2023-04-10T21:32:42.051Z,3.95
2023-04-10T21:37:44.908Z,3.42
2023-04-10T21:42:49.618Z,3.40
2023-04-10T21:47:52.668Z,3.83
2023-04-10T21:52:55.565Z,4.35
2023-04-10T21:57:59.828Z,4.07
2023-04-10T22:03:02.814Z,5.30
2023-04-10T22:08:06.199Z,4.78
2023-04-10T22:13:12.296Z,4.47
2023-04-10T22:18:19.859Z,5.05
2023-04-10T22:23:24.180Z,5.10
2023-04-10T22:28:28.541Z,3.97
2023-04-10T22:33:32.724Z,1.83
2023-04-10T22:38:35.495Z,1.88
2023-04-10T22:43:39.580Z,1.38
2023-04-10T22:48:42.320Z,1.13
2023-04-10T22:53:45.003Z,1.10
2023-04-10T22:58:49.105Z,1.30
2023-04-10T23:03:53.804Z,2.72
2023-04-10T23:08:56.988Z,1.20
2023-04-10T23:14:01.337Z,1.48
2023-04-10T23:19:04.184Z,1.60
2023-04-10T23:24:07.496Z,1.42
2023-04-10T23:29:11.629Z,1.85
2023-04-10T23:34:14.421Z,1.60
2023-04-10T23:39:17.193Z,1.45
2023-04-10T23:44:21.342Z,1.70
2023-04-10T23:49:24.339Z,1.02
2023-04-10T23:54:27.303Z,1.10
2023-04-10T23:59:31.496Z,1.30
